createdAt,value
2019-04-26T00:01:59.656Z,12.00
2019-04-26T00:04:30.393Z,12.00
2019-04-26T00:07:01.908Z,11.90
2019-04-26T00:09:37.887Z,11.80
2019-04-26T00:12:30.833Z,11.90
2019-04-26T00:15:19.825Z,11.90
2019-04-26T00:17:54.027Z,11.90
2019-04-26T00:20:25.285Z,11.80
2019-04-26T00:22:55.562Z,11.80
2019-04-26T00:25:25.987Z,11.70
2019-04-26T00:27:56.452Z,11.60
2019-04-26T00:30:26.895Z,11.60
2019-04-26T00:32:57.399Z,11.70
2019-04-26T00:35:28.143Z,11.70
2019-04-26T00:37:58.472Z,11.70
2019-04-26T00:40:29.043Z,11.70
2019-04-26T00:43:02.794Z,11.70
2019-04-26T00:45:36.401Z,11.70
2019-04-26T00:48:07.122Z,11.70
2019-04-26T00:50:37.890Z,11.70
2019-04-26T00:53:08.843Z,11.60
2019-04-26T00:55:39.558Z,11.60
2019-04-26T00:58:10.967Z,11.50
2019-04-26T01:00:42.005Z,11.50
2019-04-26T01:03:15.206Z,11.30
2019-04-26T01:05:45.577Z,11.30
2019-04-26T01:08:17.027Z,11.30
2019-04-26T01:10:47.439Z,11.20
2019-04-26T01:13:17.967Z,11.20
2019-04-26T01:15:48.591Z,10.90
2019-04-26T01:18:20.122Z,10.80
2019-04-26T01:20:53.466Z,10.70
2019-04-26T01:23:27.303Z,10.50
2019-04-26T01:26:08.966Z,10.60
2019-04-26T01:28:44.816Z,10.70
2019-04-26T01:31:15.747Z,10.90
2019-04-26T01:33:46.903Z,11.00
2019-04-26T01:36:18.272Z,11.00
2019-04-26T01:38:52.669Z,10.90
2019-04-26T01:41:33.309Z,11.00
2019-04-26T01:44:09.827Z,11.00
2019-04-26T01:46:43.952Z,11.10
2019-04-26T01:49:17.371Z,11.00
2019-04-26T01:51:56.074Z,11.10
2019-04-26T01:54:31.932Z,11.10
2019-04-26T01:57:04.653Z,11.00
2019-04-26T01:59:38.828Z,10.90
2019-04-26T02:02:25.712Z,10.90
2019-04-26T02:05:14.492Z,11.00
2019-04-26T02:07:44.979Z,11.10
2019-04-26T02:10:18.600Z,11.00
2019-04-26T02:12:50.051Z,10.90
2019-04-26T02:15:24.454Z,10.80
2019-04-26T02:17:57.787Z,10.90
2019-04-26T02:20:58.275Z,10.90
2019-04-26T02:23:34.607Z,11.00
2019-04-26T02:26:30.438Z,11.00
2019-04-26T02:29:01.468Z,11.00
2019-04-26T02:31:33.727Z,11.00
2019-04-26T02:34:05.011Z,11.00
2019-04-26T02:36:55.216Z,11.10
2019-04-26T02:39:22.488Z,11.00
2019-04-26T02:41:56.524Z,11.00
2019-04-26T02:44:39.078Z,11.00
2019-04-26T02:47:39.195Z,11.10
2019-04-26T02:50:15.508Z,11.00
2019-04-26T02:53:00.285Z,11.00
2019-04-26T02:56:17.154Z,11.10
2019-04-26T02:59:23.444Z,11.10
2019-04-26T03:01:57.724Z,11.00
2019-04-26T03:04:30.971Z,10.90
2019-04-26T03:07:08.384Z,10.90
2019-04-26T03:09:43.176Z,11.00
2019-04-26T03:12:16.095Z,10.90
2019-04-26T03:15:12.614Z,10.90
2019-04-26T03:17:49.469Z,11.00
2019-04-26T03:20:24.248Z,11.00
2019-04-26T03:23:57.115Z,11.00
2019-04-26T03:26:52.469Z,10.90
2019-04-26T03:29:51.904Z,10.80
2019-04-26T03:33:02.647Z,10.70
2019-04-26T03:36:07.769Z,10.60
2019-04-26T03:38:47.965Z,10.70
2019-04-26T03:41:35.102Z,10.70
2019-04-26T03:44:28.448Z,10.80
2019-04-26T03:47:03.226Z,10.80
2019-04-26T03:49:57.027Z,10.70
2019-04-26T03:53:08.224Z,10.70
2019-04-26T03:56:22.701Z,10.70
2019-04-26T03:59:24.675Z,10.70
2019-04-26T04:02:18.864Z,10.70
2019-04-26T04:04:59.831Z,10.70
2019-04-26T04:07:39.428Z,10.70
2019-04-26T04:10:11.052Z,10.70
2019-04-26T04:12:55.961Z,10.60
2019-04-26T04:15:37.944Z,10.60
2019-04-26T04:18:14.137Z,10.70
2019-04-26T04:21:15.467Z,10.70
2019-04-26T04:23:53.301Z,10.60
2019-04-26T04:26:32.157Z,10.50
2019-04-26T04:29:42.206Z,10.50
2019-04-26T04:32:29.945Z,10.60
2019-04-26T04:35:06.511Z,10.60
2019-04-26T04:38:02.870Z,10.50
2019-04-26T04:41:25.100Z,10.50
2019-04-26T04:44:10.547Z,10.50
2019-04-26T04:47:23.725Z,10.60
2019-04-26T04:50:07.903Z,10.50
2019-04-26T04:52:54.210Z,10.60
2019-04-26T04:55:39.805Z,10.60
2019-04-26T04:58:17.402Z,10.70
2019-04-26T05:01:44.237Z,10.60
2019-04-26T05:04:32.549Z,10.60
2019-04-26T05:07:24.630Z,10.70
2019-04-26T05:10:17.807Z,10.60
2019-04-26T05:13:22.890Z,10.60
2019-04-26T05:16:18.467Z,10.60
2019-04-26T05:19:29.637Z,10.70
2019-04-26T05:22:27.830Z,10.70
2019-04-26T05:25:49.345Z,10.70
2019-04-26T05:28:40.128Z,10.70
2019-04-26T05:31:24.643Z,10.80
2019-04-26T05:34:17.507Z,10.80
2019-04-26T05:37:18.241Z,10.80
2019-04-26T05:40:40.043Z,10.80
2019-04-26T05:43:51.971Z,10.80
2019-04-26T05:47:16.980Z,10.80
2019-04-26T05:50:57.899Z,10.80
2019-04-26T05:54:43.331Z,10.90
2019-04-26T05:57:41.513Z,10.90
2019-04-26T06:00:44.560Z,11.20
2019-04-26T06:03:27.907Z,11.30
2019-04-26T06:06:36.928Z,11.20
2019-04-26T06:09:28.624Z,11.30
2019-04-26T06:12:24.271Z,11.40
2019-04-26T06:15:43.307Z,11.40
2019-04-26T06:18:42.479Z,11.50
2019-04-26T06:21:29.703Z,11.40
2019-04-26T06:24:54.227Z,11.40
2019-04-26T06:27:53.507Z,11.40
2019-04-26T06:30:45.257Z,11.50
2019-04-26T06:33:25.627Z,11.60
2019-04-26T06:35:59.354Z,11.50
2019-04-26T06:39:14.611Z,11.60
2019-04-26T06:42:32.563Z,11.80
2019-04-26T06:45:35.721Z,11.90
2019-04-26T06:48:18.698Z,12.10
2019-04-26T06:50:58.474Z,12.10
2019-04-26T06:54:12.371Z,12.40
2019-04-26T06:57:59.943Z,12.70
2019-04-26T07:00:53.290Z,13.10
2019-04-26T07:04:06.161Z,13.30
2019-04-26T07:06:43.915Z,13.40
2019-04-26T07:09:18.920Z,13.60
2019-04-26T07:12:36.264Z,13.50
2019-04-26T07:15:33.068Z,13.50
2019-04-26T07:18:56.936Z,13.50
2019-04-26T07:22:19.711Z,13.30
2019-04-26T07:25:33.024Z,13.20
2019-04-26T07:28:27.969Z,13.10
2019-04-26T07:31:14.525Z,13.10
2019-04-26T07:34:22.903Z,13.30
2019-04-26T07:37:40.653Z,13.50
2019-04-26T07:41:05.132Z,14.20
2019-04-26T07:44:02.752Z,14.40
2019-04-26T07:47:01.525Z,14.90
2019-04-26T07:50:32.698Z,14.90
2019-04-26T07:53:35.583Z,14.70
2019-04-26T07:56:48.280Z,14.40
2019-04-26T07:59:56.362Z,14.30
2019-04-26T08:02:55.005Z,14.10
2019-04-26T08:05:39.379Z,14.10
2019-04-26T08:08:13.471Z,14.10
2019-04-26T08:11:01.030Z,14.20
2019-04-26T08:13:35.875Z,14.30
2019-04-26T08:16:27.747Z,14.40
2019-04-26T08:19:05.322Z,14.60
2019-04-26T08:21:42.481Z,14.80
2019-04-26T08:24:23.467Z,15.00
2019-04-26T08:27:19.669Z,15.00
2019-04-26T08:29:44.284Z,14.80
2019-04-26T08:32:23.155Z,14.70
2019-04-26T08:35:02.418Z,14.70
2019-04-26T08:37:49.032Z,14.60
2019-04-26T08:40:28.210Z,14.70
2019-04-26T08:43:08.465Z,14.90
2019-04-26T08:46:03.121Z,15.00
2019-04-26T08:48:41.302Z,15.20
2019-04-26T08:51:20.709Z,15.30
2019-04-26T08:53:52.323Z,15.40
2019-04-26T08:56:28.095Z,15.30
2019-04-26T08:59:03.807Z,15.30
2019-04-26T09:01:48.546Z,15.60
2019-04-26T09:04:26.739Z,16.10
2019-04-26T09:07:07.933Z,16.00
2019-04-26T09:09:41.142Z,16.50
2019-04-26T09:12:22.827Z,16.50
2019-04-26T09:14:52.427Z,16.20
2019-04-26T09:17:22.799Z,15.90
2019-04-26T09:19:54.219Z,15.70
2019-04-26T09:22:33.548Z,15.60
2019-04-26T09:25:15.481Z,15.90
2019-04-26T09:27:58.953Z,15.70
2019-04-26T09:30:47.724Z,16.00
2019-04-26T09:33:41.272Z,16.00
2019-04-26T09:36:12.254Z,16.40
2019-04-26T09:38:43.044Z,16.70
2019-04-26T09:41:13.475Z,17.00
2019-04-26T09:43:54.999Z,16.80
2019-04-26T09:46:44.364Z,16.70
2019-04-26T09:49:25.036Z,16.80
2019-04-26T09:51:55.820Z,16.90
2019-04-26T09:54:26.117Z,16.80
2019-04-26T09:56:56.484Z,16.80
2019-04-26T09:59:26.870Z,17.00
2019-04-26T10:01:59.447Z,17.60
2019-04-26T10:04:31.050Z,17.80
2019-04-26T10:07:03.236Z,18.00
2019-04-26T10:09:34.664Z,18.50
2019-04-26T10:12:34.167Z,19.10
2019-04-26T10:15:18.146Z,18.80
2019-04-26T10:17:50.212Z,18.90
2019-04-26T10:20:20.780Z,18.50
2019-04-26T10:22:51.324Z,18.60
2019-04-26T10:25:21.760Z,19.00
2019-04-26T10:27:52.415Z,18.90
2019-04-26T10:30:22.838Z,20.80
2019-04-26T10:32:53.196Z,21.60
2019-04-26T10:35:23.555Z,21.10
2019-04-26T10:37:54.024Z,22.20
2019-04-26T10:40:35.042Z,21.30
2019-04-26T10:42:56.639Z,20.90
2019-04-26T10:45:28.205Z,21.10
2019-04-26T10:47:58.676Z,20.80
2019-04-26T10:50:32.958Z,21.10
2019-04-26T10:53:12.187Z,21.00
2019-04-26T10:56:00.252Z,20.70
2019-04-26T10:58:44.345Z,20.40
2019-04-26T11:01:15.819Z,20.90
2019-04-26T11:03:47.852Z,23.90
2019-04-26T11:06:18.319Z,26.00
2019-04-26T11:08:48.732Z,26.40
2019-04-26T11:11:19.231Z,26.40
2019-04-26T11:13:49.620Z,26.80
2019-04-26T11:16:20.174Z,25.50
2019-04-26T11:18:50.753Z,25.80
2019-04-26T11:21:22.422Z,24.80
2019-04-26T11:23:53.044Z,23.90
2019-04-26T11:26:23.509Z,24.50
2019-04-26T11:28:55.842Z,24.70
2019-04-26T11:31:27.824Z,25.50
2019-04-26T11:34:05.230Z,25.30
2019-04-26T11:36:31.371Z,24.60
2019-04-26T11:39:05.687Z,23.40
2019-04-26T11:41:37.639Z,23.60
2019-04-26T11:44:07.641Z,24.50
2019-04-26T11:46:44.913Z,24.90
2019-04-26T11:49:11.222Z,24.30
2019-04-26T11:51:42.315Z,23.40
2019-04-26T11:54:12.711Z,23.70
2019-04-26T11:56:43.303Z,23.30
2019-04-26T11:59:15.427Z,24.40
2019-04-26T12:01:45.780Z,24.00
2019-04-26T12:04:35.320Z,24.70
2019-04-26T12:07:11.913Z,25.60
2019-04-26T12:09:46.555Z,24.10
2019-04-26T12:12:28.705Z,24.50
2019-04-26T12:15:03.868Z,24.80
2019-04-26T12:17:35.101Z,23.70
2019-04-26T12:20:06.765Z,23.10
2019-04-26T12:22:39.354Z,23.20
2019-04-26T12:25:09.529Z,23.10
2019-04-26T12:27:40.047Z,22.60
2019-04-26T12:30:11.664Z,22.50
2019-04-26T12:32:42.068Z,22.40
2019-04-26T12:35:13.475Z,22.20
2019-04-26T12:37:43.858Z,21.70
2019-04-26T12:40:14.937Z,21.60
2019-04-26T12:42:47.381Z,21.60
2019-04-26T12:45:43.337Z,21.40
2019-04-26T12:48:16.725Z,21.10
2019-04-26T12:50:47.302Z,21.20
2019-04-26T12:53:18.094Z,21.60
2019-04-26T12:55:53.059Z,21.70
2019-04-26T12:58:21.379Z,21.00
2019-04-26T13:00:54.324Z,20.70
2019-04-26T13:03:24.896Z,20.80
2019-04-26T13:05:58.067Z,21.00
2019-04-26T13:08:28.609Z,20.90
2019-04-26T13:11:48.409Z,20.60
2019-04-26T13:14:16.203Z,21.00
2019-04-26T13:17:01.176Z,20.80
2019-04-26T13:19:29.766Z,21.00
2019-04-26T13:22:00.192Z,20.70
2019-04-26T13:24:30.803Z,20.30
2019-04-26T13:27:01.325Z,20.00
2019-04-26T13:29:32.197Z,20.00
2019-04-26T13:32:02.724Z,20.20
2019-04-26T13:34:33.314Z,20.40
2019-04-26T13:37:05.317Z,20.30
2019-04-26T13:39:36.035Z,20.10
2019-04-26T13:42:09.314Z,20.10
2019-04-26T13:45:02.684Z,19.90
2019-04-26T13:47:41.823Z,19.80
2019-04-26T13:50:15.627Z,19.60
2019-04-26T13:52:46.775Z,19.60
2019-04-26T13:55:17.135Z,19.40
2019-04-26T13:57:47.513Z,19.30
2019-04-26T14:00:27.992Z,19.30
2019-04-26T14:02:58.999Z,19.10
2019-04-26T14:05:29.406Z,19.10
2019-04-26T14:08:00.042Z,19.00
2019-04-26T14:10:30.547Z,19.10
2019-04-26T14:13:00.976Z,19.40
2019-04-26T14:15:31.408Z,19.20
2019-04-26T14:18:04.376Z,19.50
2019-04-26T14:20:33.777Z,20.80
2019-04-26T14:23:33.539Z,21.90
2019-04-26T14:26:09.445Z,22.70
2019-04-26T14:28:42.020Z,22.00
2019-04-26T14:31:12.330Z,20.80
2019-04-26T14:33:44.071Z,19.80
2019-04-26T14:36:18.530Z,19.40
2019-04-26T14:38:50.251Z,19.10
2019-04-26T14:41:22.747Z,18.90
2019-04-26T14:43:56.727Z,18.90
2019-04-26T14:46:28.380Z,18.90
2019-04-26T14:49:05.471Z,18.70
2019-04-26T14:51:33.369Z,18.40
2019-04-26T14:54:07.445Z,18.60
2019-04-26T14:56:51.551Z,18.60
2019-04-26T14:59:14.080Z,18.40
2019-04-26T15:02:02.674Z,18.40
2019-04-26T15:04:45.340Z,18.30
2019-04-26T15:07:18.206Z,18.20
2019-04-26T15:09:50.573Z,18.00
2019-04-26T15:12:22.407Z,17.90
2019-04-26T15:14:53.845Z,17.90
2019-04-26T15:17:26.643Z,18.10
2019-04-26T15:19:58.583Z,18.10
2019-04-26T15:22:30.477Z,18.00
2019-04-26T15:25:07.714Z,18.00
2019-04-26T15:27:42.103Z,17.90
2019-04-26T15:30:15.392Z,17.90
2019-04-26T15:32:49.652Z,18.10
2019-04-26T15:35:23.247Z,18.10
2019-04-26T15:37:57.404Z,18.00
2019-04-26T15:40:49.651Z,17.90
2019-04-26T15:43:42.841Z,17.90
2019-04-26T15:46:22.794Z,17.90
2019-04-26T15:49:12.859Z,17.80
2019-04-26T15:51:43.271Z,17.80
2019-04-26T15:54:21.250Z,17.80
2019-04-26T15:56:53.746Z,17.80
2019-04-26T15:59:25.393Z,17.80
2019-04-26T16:02:02.291Z,17.60
2019-04-26T16:04:34.299Z,17.70
2019-04-26T16:07:05.959Z,17.70
2019-04-26T16:09:38.992Z,17.50
2019-04-26T16:12:13.259Z,17.60
2019-04-26T16:14:45.034Z,17.60
2019-04-26T16:17:19.222Z,17.60
2019-04-26T16:19:56.118Z,17.60
2019-04-26T16:22:31.088Z,17.70
2019-04-26T16:25:05.513Z,17.60
2019-04-26T16:27:38.519Z,17.50
2019-04-26T16:30:32.999Z,17.50
2019-04-26T16:33:13.405Z,17.50
2019-04-26T16:35:45.772Z,17.60
2019-04-26T16:38:35.870Z,17.60
2019-04-26T16:41:09.083Z,17.40
2019-04-26T16:43:50.943Z,17.40
2019-04-26T16:46:20.653Z,17.30
2019-04-26T16:48:56.778Z,17.20
2019-04-26T16:51:25.875Z,17.10
2019-04-26T16:54:06.711Z,17.10
2019-04-26T16:56:35.668Z,17.10
2019-04-26T16:59:04.999Z,17.10
2019-04-26T17:01:38.062Z,17.10
2019-04-26T17:04:14.193Z,17.10
2019-04-26T17:06:46.715Z,17.00
2019-04-26T17:09:19.600Z,16.90
2019-04-26T17:11:52.389Z,16.80
2019-04-26T17:14:24.633Z,16.90
2019-04-26T17:16:55.742Z,16.90
2019-04-26T17:19:29.689Z,16.80
2019-04-26T17:22:14.025Z,16.80
2019-04-26T17:25:03.595Z,16.90
2019-04-26T17:27:36.251Z,16.80
2019-04-26T17:30:10.442Z,16.80
2019-04-26T17:32:42.223Z,16.90
2019-04-26T17:35:14.946Z,16.80
2019-04-26T17:37:50.208Z,16.70
2019-04-26T17:40:25.388Z,16.70
2019-04-26T17:42:56.120Z,16.80
2019-04-26T17:45:36.330Z,16.80
2019-04-26T17:48:06.697Z,16.90
2019-04-26T17:50:40.069Z,17.00
2019-04-26T17:53:13.475Z,17.00
2019-04-26T17:55:45.875Z,17.00
2019-04-26T17:58:17.900Z,17.00
2019-04-26T18:00:51.505Z,16.90
2019-04-26T18:03:25.729Z,16.90
2019-04-26T18:06:00.899Z,16.70
2019-04-26T18:08:38.686Z,16.60
2019-04-26T18:11:08.345Z,16.60
2019-04-26T18:13:40.718Z,16.60
2019-04-26T18:16:13.660Z,16.40
2019-04-26T18:19:10.687Z,16.30
2019-04-26T18:22:04.817Z,16.20
2019-04-26T18:24:38.929Z,16.10
2019-04-26T18:27:12.071Z,16.00
2019-04-26T18:29:45.775Z,15.90
2019-04-26T18:32:18.837Z,15.80
2019-04-26T18:34:53.493Z,15.80
2019-04-26T18:37:27.858Z,15.70
2019-04-26T18:40:02.095Z,15.60
2019-04-26T18:42:42.054Z,15.50
2019-04-26T18:45:21.227Z,15.50
2019-04-26T18:47:48.862Z,15.40
2019-04-26T18:50:23.741Z,15.40
2019-04-26T18:53:19.692Z,15.40
2019-04-26T18:55:53.557Z,15.30
2019-04-26T18:58:30.313Z,15.30
2019-04-26T19:01:01.573Z,15.20
2019-04-26T19:03:37.119Z,15.20
2019-04-26T19:06:10.872Z,15.10
2019-04-26T19:08:47.665Z,15.20
2019-04-26T19:11:17.341Z,15.20
2019-04-26T19:14:14.972Z,15.10
2019-04-26T19:17:11.997Z,15.10
2019-04-26T19:20:02.189Z,14.90
2019-04-26T19:22:34.761Z,15.00
2019-04-26T19:25:18.675Z,14.90
2019-04-26T19:27:48.123Z,14.90
2019-04-26T19:30:15.325Z,14.90
2019-04-26T19:32:53.799Z,14.70
2019-04-26T19:35:26.693Z,14.70
2019-04-26T19:37:59.421Z,14.60
2019-04-26T19:40:31.201Z,14.50
2019-04-26T19:43:07.916Z,14.50
2019-04-26T19:45:52.006Z,14.50
2019-04-26T19:48:49.519Z,14.50
2019-04-26T19:51:43.757Z,14.40
2019-04-26T19:54:32.248Z,14.40
2019-04-26T19:57:10.214Z,14.30
2019-04-26T19:59:42.275Z,14.20
2019-04-26T20:02:15.250Z,14.20
2019-04-26T20:04:51.348Z,14.20
2019-04-26T20:07:24.188Z,14.10
2019-04-26T20:10:02.631Z,14.10
2019-04-26T20:12:37.931Z,14.10
2019-04-26T20:15:08.872Z,14.10
2019-04-26T20:17:43.227Z,14.00
2019-04-26T20:20:20.835Z,13.90
2019-04-26T20:22:51.512Z,14.00
2019-04-26T20:25:22.367Z,14.10
2019-04-26T20:27:59.882Z,14.10
2019-04-26T20:30:57.402Z,14.10
2019-04-26T20:33:31.000Z,13.90
2019-04-26T20:36:04.552Z,13.90
2019-04-26T20:38:42.568Z,13.90
2019-04-26T20:41:07.917Z,13.80
2019-04-26T20:43:44.401Z,13.80
2019-04-26T20:46:15.144Z,13.70
2019-04-26T20:48:45.452Z,13.60
2019-04-26T20:51:18.389Z,13.50
2019-04-26T20:53:49.796Z,13.40
2019-04-26T20:56:20.081Z,13.30
2019-04-26T20:58:51.939Z,13.10
2019-04-26T21:01:22.550Z,13.00
2019-04-26T21:03:52.891Z,13.10
2019-04-26T21:06:23.233Z,13.20
2019-04-26T21:08:58.700Z,13.10
2019-04-26T21:11:26.529Z,13.00
2019-04-26T21:14:01.798Z,12.90
2019-04-26T21:16:32.360Z,13.00
2019-04-26T21:19:02.825Z,13.00
2019-04-26T21:21:33.173Z,12.90
2019-04-26T21:24:05.500Z,12.90
2019-04-26T21:26:54.464Z,12.90
2019-04-26T21:29:43.498Z,12.90
2019-04-26T21:32:20.280Z,12.90
2019-04-26T21:34:53.761Z,12.80
2019-04-26T21:37:36.991Z,12.70
2019-04-26T21:40:23.221Z,12.80
2019-04-26T21:42:55.282Z,12.80
2019-04-26T21:45:28.507Z,12.70
2019-04-26T21:47:57.200Z,12.80
2019-04-26T21:50:29.088Z,12.80
2019-04-26T21:53:03.426Z,12.60
2019-04-26T21:55:38.368Z,12.60
2019-04-26T21:58:05.187Z,12.50
2019-04-26T22:00:53.869Z,12.50
2019-04-26T22:03:26.375Z,12.50
2019-04-26T22:05:56.703Z,12.40
2019-04-26T22:08:30.364Z,12.40
2019-04-26T22:11:03.476Z,12.50
2019-04-26T22:13:43.266Z,12.50
2019-04-26T22:16:37.838Z,12.50
2019-04-26T22:19:21.613Z,12.40
2019-04-26T22:22:05.761Z,12.30
2019-04-26T22:24:36.263Z,12.20
2019-04-26T22:27:06.639Z,12.10
2019-04-26T22:29:37.083Z,12.00
2019-04-26T22:32:07.582Z,11.80
2019-04-26T22:34:41.329Z,11.60
2019-04-26T22:37:12.746Z,11.70
2019-04-26T22:39:44.190Z,11.70
2019-04-26T22:42:14.516Z,11.70
2019-04-26T22:44:54.051Z,11.70
2019-04-26T22:47:33.890Z,11.60
2019-04-26T22:50:04.683Z,11.40
2019-04-26T22:52:35.004Z,11.40
2019-04-26T22:55:06.198Z,11.30
2019-04-26T22:57:36.464Z,11.20
2019-04-26T23:00:07.063Z,11.40
2019-04-26T23:02:39.035Z,11.40
2019-04-26T23:05:09.485Z,11.50
2019-04-26T23:07:39.818Z,11.50
2019-04-26T23:10:11.182Z,11.40
2019-04-26T23:13:04.638Z,11.30
2019-04-26T23:16:08.594Z,11.00
2019-04-26T23:18:46.166Z,11.10
2019-04-26T23:21:30.907Z,11.20
2019-04-26T23:24:03.779Z,11.20
2019-04-26T23:26:37.443Z,11.30
2019-04-26T23:29:08.572Z,11.20
2019-04-26T23:31:41.609Z,11.10
2019-04-26T23:34:10.693Z,11.20
2019-04-26T23:36:41.055Z,11.20
2019-04-26T23:39:12.133Z,11.20
2019-04-26T23:41:46.779Z,11.20
2019-04-26T23:44:17.142Z,11.10
2019-04-26T23:46:47.819Z,11.00
2019-04-26T23:49:19.315Z,11.10
2019-04-26T23:51:50.950Z,11.00
2019-04-26T23:54:21.294Z,11.00
2019-04-26T23:56:55.636Z,11.00
2019-04-26T23:59:24.826Z,11.00
